createdAt,value
2018-12-27T00:00:50.335Z,51.40
2018-12-27T00:03:19.508Z,46.27
2018-12-27T00:05:48.676Z,45.73
2018-12-27T00:08:18.143Z,45.50
2018-12-27T00:10:47.718Z,45.17
2018-12-27T00:13:16.870Z,49.93
2018-12-27T00:15:46.047Z,48.90
2018-12-27T00:18:15.253Z,47.73
2018-12-27T00:20:44.459Z,45.47
2018-12-27T00:23:13.630Z,43.27
2018-12-27T00:25:42.826Z,42.63
2018-12-27T00:28:12.120Z,45.03
2018-12-27T00:30:41.560Z,44.63
2018-12-27T00:33:11.101Z,44.03
2018-12-27T00:35:40.509Z,47.53
2018-12-27T00:38:10.313Z,45.47
2018-12-27T00:40:39.715Z,47.13
2018-12-27T00:43:09.119Z,43.17
2018-12-27T00:45:38.677Z,47.60
2018-12-27T00:48:08.104Z,42.07
2018-12-27T00:50:37.502Z,41.57
2018-12-27T00:53:06.919Z,42.63
2018-12-27T00:55:36.322Z,45.00
2018-12-27T00:58:05.768Z,45.33
2018-12-27T01:00:35.263Z,41.33
2018-12-27T01:03:11.153Z,44.23
2018-12-27T01:05:35.925Z,42.17
2018-12-27T01:08:05.430Z,42.73
2018-12-27T01:10:34.836Z,38.57
2018-12-27T01:13:04.508Z,42.33
2018-12-27T01:15:34.111Z,39.90
2018-12-27T01:18:03.597Z,38.30
2018-12-27T01:20:33.049Z,39.40
2018-12-27T01:23:02.506Z,39.43
2018-12-27T01:25:32.296Z,39.93
2018-12-27T01:28:01.794Z,40.23
2018-12-27T01:30:33.540Z,37.67
2018-12-27T01:33:03.216Z,36.53
2018-12-27T01:35:32.681Z,37.07
2018-12-27T01:38:02.090Z,38.87
2018-12-27T01:40:31.818Z,38.37
2018-12-27T01:43:01.297Z,39.27
2018-12-27T01:45:30.687Z,37.87
2018-12-27T01:48:00.131Z,36.17
2018-12-27T01:50:29.513Z,35.87
2018-12-27T01:52:58.943Z,35.53
2018-12-27T01:55:28.343Z,34.63
2018-12-27T01:57:58.433Z,34.97
2018-12-27T02:00:27.834Z,30.73
2018-12-27T02:02:57.248Z,33.20
2018-12-27T02:05:26.678Z,33.37
2018-12-27T02:07:56.130Z,36.17
2018-12-27T02:10:25.501Z,33.13
2018-12-27T02:12:54.984Z,29.80
2018-12-27T02:15:24.390Z,31.03
2018-12-27T02:17:53.995Z,28.20
2018-12-27T02:20:23.441Z,31.00
2018-12-27T02:22:52.881Z,27.77
2018-12-27T02:25:22.363Z,27.73
2018-12-27T02:27:51.888Z,28.33
2018-12-27T02:30:21.338Z,26.07
2018-12-27T02:32:51.624Z,26.63
2018-12-27T02:35:21.014Z,29.93
2018-12-27T02:37:50.399Z,27.07
2018-12-27T02:40:21.066Z,28.73
2018-12-27T02:42:50.453Z,29.70
2018-12-27T02:45:19.845Z,27.83
2018-12-27T02:47:49.252Z,28.67
2018-12-27T02:50:18.691Z,29.27
2018-12-27T02:52:48.085Z,28.77
2018-12-27T02:55:17.530Z,30.97
2018-12-27T02:57:47.040Z,29.93
2018-12-27T03:00:16.436Z,31.37
2018-12-27T03:02:45.963Z,32.10
2018-12-27T03:05:15.455Z,30.37
2018-12-27T03:07:44.886Z,31.20
2018-12-27T03:10:14.378Z,28.60
2018-12-27T03:12:43.805Z,31.00
2018-12-27T03:15:13.258Z,31.40
2018-12-27T03:17:43.138Z,32.13
2018-12-27T03:20:12.737Z,31.63
2018-12-27T03:22:42.127Z,29.77
2018-12-27T03:25:11.522Z,32.00
2018-12-27T03:27:40.971Z,30.63
2018-12-27T03:30:10.375Z,29.70
2018-12-27T03:32:39.778Z,29.33
2018-12-27T03:35:09.333Z,31.73
2018-12-27T03:37:38.855Z,30.57
2018-12-27T03:40:08.337Z,33.53
2018-12-27T03:42:37.768Z,28.80
2018-12-27T03:45:07.313Z,31.47
2018-12-27T03:47:36.715Z,29.67
2018-12-27T03:50:06.154Z,32.37
2018-12-27T03:52:35.554Z,30.50
2018-12-27T03:55:05.262Z,30.53
2018-12-27T03:57:34.709Z,29.17
2018-12-27T04:00:04.295Z,31.77
2018-12-27T04:02:33.799Z,28.47
2018-12-27T04:05:03.247Z,29.27
2018-12-27T04:07:32.728Z,31.13
2018-12-27T04:10:06.384Z,30.10
2018-12-27T04:12:35.802Z,30.70
2018-12-27T04:15:09.934Z,28.00
2018-12-27T04:17:39.072Z,30.40
2018-12-27T04:20:08.208Z,29.50
2018-12-27T04:22:37.394Z,27.40
2018-12-27T04:25:06.745Z,30.47
2018-12-27T04:27:35.922Z,32.87
2018-12-27T04:30:05.738Z,33.73
2018-12-27T04:32:35.132Z,29.47
2018-12-27T04:35:04.280Z,30.53
2018-12-27T04:37:33.677Z,32.43
2018-12-27T04:40:02.815Z,30.07
2018-12-27T04:42:33.405Z,30.23
2018-12-27T04:45:02.548Z,29.30
2018-12-27T04:47:31.686Z,30.30
2018-12-27T04:50:03.774Z,32.67
2018-12-27T04:52:32.973Z,28.53
2018-12-27T04:55:02.785Z,30.80
2018-12-27T04:57:31.931Z,30.10
2018-12-27T05:00:01.080Z,26.83
2018-12-27T05:02:31.295Z,31.83
2018-12-27T05:05:00.441Z,29.17
2018-12-27T05:07:29.610Z,29.27
2018-12-27T05:09:58.796Z,29.43
2018-12-27T05:12:27.977Z,29.43
2018-12-27T05:14:57.224Z,26.00
2018-12-27T05:17:26.498Z,28.60
2018-12-27T05:19:56.463Z,28.00
2018-12-27T05:22:25.583Z,30.53
2018-12-27T05:24:54.753Z,28.67
2018-12-27T05:27:23.926Z,28.83
2018-12-27T05:29:53.109Z,28.53
2018-12-27T05:32:22.287Z,31.07
2018-12-27T05:34:51.415Z,27.73
2018-12-27T05:37:20.548Z,29.07
2018-12-27T05:39:49.990Z,27.17
2018-12-27T05:42:19.117Z,30.10
2018-12-27T05:44:48.246Z,27.00
2018-12-27T05:47:17.667Z,26.87
2018-12-27T05:49:46.918Z,28.33
2018-12-27T05:52:16.074Z,29.50
2018-12-27T05:54:46.775Z,26.80
2018-12-27T05:57:16.004Z,27.80
2018-12-27T05:59:45.283Z,28.30
2018-12-27T06:02:14.471Z,27.27
2018-12-27T06:04:43.617Z,28.70
2018-12-27T06:07:12.789Z,27.50
2018-12-27T06:09:42.004Z,28.20
2018-12-27T06:12:11.192Z,26.57
2018-12-27T06:14:40.338Z,29.83
2018-12-27T06:17:09.754Z,27.50
2018-12-27T06:19:39.020Z,25.83
2018-12-27T06:22:08.173Z,28.93
2018-12-27T06:24:37.357Z,29.47
2018-12-27T06:27:06.934Z,27.80
2018-12-27T06:29:36.077Z,27.47
2018-12-27T06:32:05.543Z,26.53
2018-12-27T06:34:41.131Z,26.57
2018-12-27T06:37:05.539Z,24.97
2018-12-27T06:39:34.793Z,26.80
2018-12-27T06:42:03.978Z,27.43
2018-12-27T06:44:33.125Z,25.33
2018-12-27T06:47:02.694Z,25.33
2018-12-27T06:49:31.943Z,27.37
2018-12-27T06:52:01.101Z,26.17
2018-12-27T06:54:30.599Z,26.43
2018-12-27T06:56:59.760Z,27.13
2018-12-27T06:59:28.961Z,26.50
2018-12-27T07:01:58.252Z,25.33
2018-12-27T07:04:27.508Z,26.73
2018-12-27T07:06:56.663Z,25.07
2018-12-27T07:09:25.840Z,26.67
2018-12-27T07:11:56.397Z,27.50
2018-12-27T07:14:25.659Z,23.83
2018-12-27T07:16:54.980Z,27.77
2018-12-27T07:19:24.288Z,26.50
2018-12-27T07:21:53.436Z,26.73
2018-12-27T07:24:22.595Z,24.77
2018-12-27T07:26:51.806Z,27.87
2018-12-27T07:29:20.961Z,23.87
2018-12-27T07:31:50.100Z,26.93
2018-12-27T07:34:19.283Z,27.90
2018-12-27T07:36:48.464Z,25.33
2018-12-27T07:39:17.728Z,25.27
2018-12-27T07:41:46.884Z,26.63
2018-12-27T07:44:16.482Z,26.77
2018-12-27T07:46:45.838Z,27.13
2018-12-27T07:49:15.003Z,25.27
2018-12-27T07:51:44.251Z,26.90
2018-12-27T07:54:13.376Z,25.60
2018-12-27T07:56:42.638Z,24.60
2018-12-27T07:59:11.944Z,27.40
2018-12-27T08:01:41.099Z,29.87
2018-12-27T08:04:10.296Z,27.23
2018-12-27T08:06:39.478Z,24.37
2018-12-27T08:09:08.992Z,25.37
2018-12-27T08:11:38.198Z,23.67
2018-12-27T08:14:07.435Z,26.60
2018-12-27T08:16:36.699Z,26.73
2018-12-27T08:19:05.883Z,23.63
2018-12-27T08:21:35.632Z,24.57
2018-12-27T08:24:04.799Z,24.43
2018-12-27T08:26:34.088Z,25.37
2018-12-27T08:29:03.306Z,27.53
2018-12-27T08:31:32.448Z,24.87
2018-12-27T08:34:01.704Z,26.07
2018-12-27T08:36:30.883Z,26.30
2018-12-27T08:39:00.083Z,22.67
2018-12-27T08:41:29.525Z,25.17
2018-12-27T08:43:58.796Z,25.40
2018-12-27T08:46:28.020Z,22.70
2018-12-27T08:48:57.184Z,24.40
2018-12-27T08:51:26.336Z,24.70
2018-12-27T08:53:55.842Z,25.53
2018-12-27T08:56:25.011Z,26.87
2018-12-27T08:58:54.188Z,26.17
2018-12-27T09:01:23.376Z,22.87
2018-12-27T09:03:52.534Z,25.20
2018-12-27T09:06:21.799Z,26.53
2018-12-27T09:08:50.969Z,22.73
2018-12-27T09:11:20.118Z,24.00
2018-12-27T09:13:49.382Z,22.90
2018-12-27T09:16:18.648Z,23.90
2018-12-27T09:18:47.914Z,22.47
2018-12-27T09:21:17.384Z,20.57
2018-12-27T09:23:46.580Z,22.60
2018-12-27T09:26:15.744Z,22.67
2018-12-27T09:28:45.315Z,22.53
2018-12-27T09:31:14.480Z,21.97
2018-12-27T09:33:43.610Z,24.33
2018-12-27T09:36:12.895Z,22.50
2018-12-27T09:38:42.130Z,24.70
2018-12-27T09:41:11.347Z,22.87
2018-12-27T09:43:40.651Z,22.77
2018-12-27T09:46:09.835Z,23.77
2018-12-27T09:48:39.009Z,24.20
2018-12-27T09:51:08.258Z,23.80
2018-12-27T09:53:37.439Z,22.10
2018-12-27T09:56:06.592Z,27.23
2018-12-27T09:58:35.854Z,22.03
2018-12-27T10:01:05.140Z,23.97
2018-12-27T10:03:34.391Z,24.97
2018-12-27T10:06:04.658Z,22.63
2018-12-27T10:08:34.051Z,24.13
2018-12-27T10:11:03.247Z,24.50
2018-12-27T10:13:32.532Z,23.23
2018-12-27T10:16:01.789Z,21.87
2018-12-27T10:18:31.098Z,22.63
2018-12-27T10:21:00.335Z,22.67
2018-12-27T10:23:29.573Z,26.70
2018-12-27T10:25:58.940Z,24.20
2018-12-27T10:28:28.173Z,24.77
2018-12-27T10:30:59.955Z,24.23
2018-12-27T10:33:28.269Z,25.37
2018-12-27T10:35:57.410Z,25.37
2018-12-27T10:38:26.680Z,22.73
2018-12-27T10:40:55.857Z,23.27
2018-12-27T10:43:25.007Z,22.63
2018-12-27T10:45:54.320Z,21.10
2018-12-27T10:48:23.576Z,19.97
2018-12-27T10:50:52.719Z,22.20
2018-12-27T10:53:21.994Z,21.73
2018-12-27T10:55:51.280Z,25.73
2018-12-27T10:58:20.422Z,22.30
2018-12-27T11:00:49.727Z,23.93
2018-12-27T11:03:19.016Z,24.17
2018-12-27T11:05:48.856Z,23.73
2018-12-27T11:08:18.296Z,24.57
2018-12-27T11:10:48.102Z,23.60
2018-12-27T11:13:17.264Z,20.97
2018-12-27T11:15:46.969Z,24.50
2018-12-27T11:18:16.141Z,20.70
2018-12-27T11:20:45.299Z,28.23
2018-12-27T11:23:15.006Z,22.90
2018-12-27T11:25:44.239Z,24.07
2018-12-27T11:28:13.379Z,23.87
2018-12-27T11:30:42.685Z,28.87
2018-12-27T11:33:11.894Z,22.97
2018-12-27T11:35:41.074Z,26.60
2018-12-27T11:38:10.267Z,26.00
2018-12-27T11:40:39.406Z,24.90
2018-12-27T11:43:09.659Z,27.00
2018-12-27T11:45:38.869Z,21.47
2018-12-27T11:48:08.317Z,24.77
2018-12-27T11:50:37.854Z,24.37
2018-12-27T11:53:06.995Z,23.87
2018-12-27T11:55:36.130Z,22.30
2018-12-27T11:58:05.339Z,21.17
2018-12-27T12:00:35.479Z,20.70
2018-12-27T12:03:06.391Z,22.13
2018-12-27T12:05:35.553Z,23.70
2018-12-27T12:08:05.891Z,22.53
2018-12-27T12:10:35.108Z,20.87
2018-12-27T12:13:04.400Z,22.37
2018-12-27T12:15:33.668Z,21.33
2018-12-27T12:18:02.833Z,23.87
2018-12-27T12:20:32.114Z,24.50
2018-12-27T12:23:01.274Z,21.83
2018-12-27T12:25:30.458Z,25.73
2018-12-27T12:27:59.645Z,24.23
2018-12-27T12:30:28.861Z,22.43
2018-12-27T12:32:58.022Z,20.83
2018-12-27T12:35:27.279Z,23.23
2018-12-27T12:37:56.892Z,25.93
2018-12-27T12:40:26.151Z,21.07
2018-12-27T12:42:55.340Z,21.93
2018-12-27T12:45:24.535Z,22.27
2018-12-27T12:47:53.790Z,19.80
2018-12-27T12:50:23.065Z,21.33
2018-12-27T12:52:52.222Z,21.37
2018-12-27T12:55:21.522Z,25.07
2018-12-27T12:57:50.675Z,22.23
2018-12-27T13:00:19.942Z,20.50
2018-12-27T13:02:49.126Z,22.57
2018-12-27T13:05:18.324Z,21.43
2018-12-27T13:07:47.465Z,21.53
2018-12-27T13:10:16.718Z,22.13
2018-12-27T13:12:45.935Z,23.17
2018-12-27T13:15:15.237Z,20.67
2018-12-27T13:17:44.429Z,19.17
2018-12-27T13:20:13.578Z,20.53
2018-12-27T13:22:43.051Z,21.20
2018-12-27T13:25:12.209Z,20.87
2018-12-27T13:27:41.428Z,22.57
2018-12-27T13:30:10.768Z,20.87
2018-12-27T13:32:39.945Z,23.27
2018-12-27T13:35:09.207Z,19.97
2018-12-27T13:37:38.399Z,22.93
2018-12-27T13:40:07.868Z,21.63
2018-12-27T13:42:37.042Z,21.37
2018-12-27T13:45:07.142Z,19.80
2018-12-27T13:47:36.572Z,21.53
2018-12-27T13:50:06.419Z,22.87
2018-12-27T13:52:36.618Z,22.13
2018-12-27T13:55:06.160Z,22.80
2018-12-27T13:57:35.330Z,22.47
2018-12-27T14:00:05.049Z,23.30
2018-12-27T14:02:34.283Z,24.67
2018-12-27T14:05:03.464Z,24.00
2018-12-27T14:07:32.846Z,22.40
2018-12-27T14:10:02.020Z,22.67
2018-12-27T14:12:31.151Z,20.60
2018-12-27T14:15:00.323Z,22.23
2018-12-27T14:17:29.462Z,22.10
2018-12-27T14:19:58.655Z,21.07
2018-12-27T14:22:27.950Z,21.67
2018-12-27T14:24:58.037Z,22.53
2018-12-27T14:27:27.460Z,21.43
2018-12-27T14:29:56.908Z,22.00
2018-12-27T14:32:26.159Z,21.27
2018-12-27T14:34:55.313Z,24.97
2018-12-27T14:37:24.698Z,24.57
2018-12-27T14:39:53.907Z,24.13
2018-12-27T14:42:23.050Z,25.93
2018-12-27T14:44:52.268Z,20.17
2018-12-27T14:47:21.472Z,23.53
2018-12-27T14:49:50.969Z,22.03
2018-12-27T14:52:20.165Z,25.37
2018-12-27T14:54:49.470Z,22.80
2018-12-27T14:57:19.145Z,22.70
2018-12-27T14:59:48.313Z,22.20
2018-12-27T15:02:17.769Z,23.70
2018-12-27T15:04:46.964Z,23.50
2018-12-27T15:07:16.793Z,23.23
2018-12-27T15:09:45.942Z,24.63
2018-12-27T15:12:15.175Z,24.33
2018-12-27T15:14:44.371Z,27.00
2018-12-27T15:17:13.571Z,22.63
2018-12-27T15:19:43.011Z,23.77
2018-12-27T15:22:12.144Z,21.33
2018-12-27T15:24:41.268Z,20.70
2018-12-27T15:27:10.450Z,25.60
2018-12-27T15:29:39.611Z,25.50
2018-12-27T15:32:08.766Z,24.17
2018-12-27T15:34:38.183Z,23.37
2018-12-27T15:37:07.454Z,23.97
2018-12-27T15:39:36.625Z,22.90
2018-12-27T15:42:05.804Z,24.03
2018-12-27T15:44:35.077Z,24.07
2018-12-27T15:47:05.928Z,24.80
2018-12-27T15:49:35.163Z,23.00
2018-12-27T15:52:04.363Z,23.27
2018-12-27T15:54:33.529Z,25.10
2018-12-27T15:57:02.691Z,23.40
2018-12-27T15:59:32.078Z,24.03
2018-12-27T16:02:01.365Z,24.00
2018-12-27T16:04:30.570Z,23.40
2018-12-27T16:07:01.879Z,24.97
2018-12-27T16:09:30.835Z,23.27
2018-12-27T16:11:59.994Z,22.07
2018-12-27T16:14:29.188Z,23.27
2018-12-27T16:16:58.536Z,23.93
2018-12-27T16:19:27.685Z,24.53
2018-12-27T16:21:56.963Z,23.70
2018-12-27T16:24:26.164Z,26.70
2018-12-27T16:26:55.322Z,22.27
2018-12-27T16:29:24.899Z,24.97
2018-12-27T16:31:54.074Z,24.73
2018-12-27T16:34:23.235Z,25.23
2018-12-27T16:36:52.509Z,26.00
2018-12-27T16:39:21.659Z,28.33
2018-12-27T16:41:50.848Z,24.87
2018-12-27T16:44:20.082Z,27.03
2018-12-27T16:46:49.274Z,24.80
2018-12-27T16:49:18.493Z,26.00
2018-12-27T16:51:47.642Z,26.20
2018-12-27T16:54:16.810Z,24.13
2018-12-27T16:56:46.248Z,26.33
2018-12-27T16:59:15.408Z,24.63
2018-12-27T17:01:44.563Z,25.60
2018-12-27T17:04:13.888Z,26.73
2018-12-27T17:06:43.069Z,27.53
2018-12-27T17:09:12.677Z,25.40
2018-12-27T17:11:42.117Z,26.43
2018-12-27T17:14:11.311Z,23.63
2018-12-27T17:16:40.524Z,21.63
2018-12-27T17:19:09.839Z,22.50
2018-12-27T17:21:38.955Z,23.00
2018-12-27T17:24:08.498Z,24.43
2018-12-27T17:26:37.636Z,24.43
2018-12-27T17:29:06.778Z,20.57
2018-12-27T17:31:35.970Z,24.23
2018-12-27T17:34:05.289Z,24.37
2018-12-27T17:36:34.473Z,23.50
2018-12-27T17:39:04.658Z,22.90
2018-12-27T17:41:33.818Z,26.43
2018-12-27T17:44:03.023Z,23.83
2018-12-27T17:46:32.163Z,25.90
2018-12-27T17:49:05.319Z,23.17
2018-12-27T17:51:34.484Z,21.73
2018-12-27T17:54:03.690Z,22.30
2018-12-27T17:56:32.822Z,25.60
2018-12-27T17:59:01.985Z,25.37
2018-12-27T18:01:31.151Z,28.07
2018-12-27T18:04:00.293Z,26.00
2018-12-27T18:06:29.647Z,27.80
2018-12-27T18:08:58.797Z,26.80
2018-12-27T18:11:27.937Z,28.50
2018-12-27T18:13:57.142Z,26.27
2018-12-27T18:16:26.374Z,28.13
2018-12-27T18:18:55.908Z,27.30
2018-12-27T18:21:25.091Z,30.37
2018-12-27T18:23:54.535Z,26.60
2018-12-27T18:26:23.812Z,28.87
2018-12-27T18:28:52.953Z,28.83
2018-12-27T18:31:22.527Z,27.83
2018-12-27T18:33:51.687Z,27.57
2018-12-27T18:36:20.863Z,29.37
2018-12-27T18:38:50.834Z,28.03
2018-12-27T18:41:20.161Z,30.37
2018-12-27T18:43:49.357Z,27.57
2018-12-27T18:46:18.524Z,28.30
2018-12-27T18:48:47.734Z,28.33
2018-12-27T18:51:17.097Z,28.40
2018-12-27T18:53:46.247Z,27.60
2018-12-27T18:56:15.441Z,29.50
2018-12-27T18:58:44.610Z,29.37
2018-12-27T19:01:13.794Z,29.70
2018-12-27T19:03:43.199Z,28.53
2018-12-27T19:06:12.459Z,28.50
2018-12-27T19:08:41.902Z,29.40
2018-12-27T19:11:46.424Z,26.63
2018-12-27T19:14:15.581Z,25.87
2018-12-27T19:16:44.774Z,27.53
2018-12-27T19:19:14.255Z,24.93
2018-12-27T19:22:06.936Z,24.10
2018-12-27T19:24:36.509Z,27.27
2018-12-27T19:27:05.709Z,23.07
2018-12-27T19:29:34.921Z,23.50
2018-12-27T19:32:04.262Z,27.57
2018-12-27T19:34:33.476Z,26.93
2018-12-27T19:37:02.813Z,24.73
2018-12-27T19:39:32.048Z,29.97
2018-12-27T19:42:01.235Z,26.33
2018-12-27T19:44:30.714Z,26.20
2018-12-27T19:46:59.967Z,28.10
2018-12-27T19:49:29.180Z,26.40
2018-12-27T19:51:58.449Z,24.60
2018-12-27T19:54:32.033Z,26.27
2018-12-27T19:56:59.596Z,25.03
2018-12-27T19:59:28.941Z,28.63
2018-12-27T20:01:58.201Z,30.83
2018-12-27T20:04:27.419Z,28.60
2018-12-27T20:06:56.961Z,31.13
2018-12-27T20:09:26.279Z,30.17
2018-12-27T20:11:55.608Z,30.10
2018-12-27T20:14:24.877Z,32.13
2018-12-27T20:16:54.316Z,27.60
2018-12-27T20:19:23.473Z,30.60
2018-12-27T20:21:52.966Z,31.37
2018-12-27T20:24:22.574Z,29.77
2018-12-27T20:26:51.834Z,28.83
2018-12-27T20:29:21.035Z,33.50
2018-12-27T20:31:50.365Z,30.87
2018-12-27T20:34:20.879Z,30.70
2018-12-27T20:36:50.129Z,30.77
2018-12-27T20:39:19.415Z,31.90
2018-12-27T20:41:48.636Z,32.17
2018-12-27T20:44:17.901Z,30.33
2018-12-27T20:46:48.115Z,30.40
2018-12-27T20:49:19.372Z,35.03
2018-12-27T20:51:48.900Z,35.80
2018-12-27T20:54:18.122Z,33.37
2018-12-27T20:56:47.313Z,33.70
2018-12-27T20:59:16.624Z,33.10
2018-12-27T21:01:46.058Z,33.87
2018-12-27T21:04:15.291Z,30.43
2018-12-27T21:06:44.753Z,33.20
2018-12-27T21:09:15.961Z,32.63
2018-12-27T21:11:47.246Z,33.37
2018-12-27T21:14:16.514Z,33.47
2018-12-27T21:16:45.993Z,34.23
2018-12-27T21:19:15.205Z,36.53
2018-12-27T21:21:44.619Z,39.13
2018-12-27T21:24:13.931Z,35.93
2018-12-27T21:26:43.214Z,39.23
2018-12-27T21:29:13.481Z,35.20
2018-12-27T21:31:42.674Z,34.47
2018-12-27T21:34:12.187Z,31.80
2018-12-27T21:36:41.408Z,29.33
2018-12-27T21:39:10.595Z,31.67
2018-12-27T21:41:39.861Z,27.07
2018-12-27T21:44:09.113Z,28.33
2018-12-27T21:46:38.418Z,30.13
2018-12-27T21:49:07.639Z,27.13
2018-12-27T21:51:37.203Z,26.83
2018-12-27T21:54:06.395Z,29.93
2018-12-27T21:56:35.570Z,27.83
2018-12-27T21:59:05.007Z,25.97
2018-12-27T22:01:34.497Z,27.67
2018-12-27T22:04:03.651Z,27.50
2018-12-27T22:06:32.998Z,28.73
2018-12-27T22:09:02.185Z,25.43
2018-12-27T22:11:31.368Z,26.10
2018-12-27T22:14:00.686Z,28.23
2018-12-27T22:16:29.892Z,31.60
2018-12-27T22:18:59.124Z,29.37
2018-12-27T22:21:28.438Z,29.23
2018-12-27T22:23:57.639Z,31.33
2018-12-27T22:26:26.818Z,31.20
2018-12-27T22:28:56.986Z,32.77
2018-12-27T22:31:26.174Z,29.87
2018-12-27T22:33:55.375Z,28.17
2018-12-27T22:36:24.852Z,25.20
2018-12-27T22:38:54.003Z,24.83
2018-12-27T22:41:23.200Z,29.53
2018-12-27T22:43:52.417Z,28.67
2018-12-27T22:46:21.641Z,28.67
2018-12-27T22:48:50.799Z,29.13
2018-12-27T22:51:21.767Z,27.50
2018-12-27T22:53:50.953Z,32.13
2018-12-27T22:56:20.134Z,28.23
2018-12-27T22:58:49.311Z,30.70
2018-12-27T23:01:18.514Z,28.63
2018-12-27T23:03:47.691Z,29.83
2018-12-27T23:06:16.931Z,28.97
2018-12-27T23:08:46.099Z,25.60
2018-12-27T23:11:15.298Z,26.67
2018-12-27T23:13:44.491Z,29.27
2018-12-27T23:16:13.633Z,25.80
2018-12-27T23:18:42.808Z,24.17
2018-12-27T23:21:12.252Z,25.23
2018-12-27T23:23:41.600Z,26.30
2018-12-27T23:26:10.766Z,25.13
2018-12-27T23:28:39.971Z,26.27
2018-12-27T23:31:09.248Z,26.93
2018-12-27T23:33:38.425Z,24.87
2018-12-27T23:36:07.823Z,24.63
2018-12-27T23:38:36.975Z,27.77
2018-12-27T23:41:06.134Z,24.47
2018-12-27T23:43:35.511Z,24.67
2018-12-27T23:46:04.714Z,24.73
2018-12-27T23:48:33.855Z,24.07
2018-12-27T23:51:04.002Z,27.57
2018-12-27T23:53:33.134Z,28.00
2018-12-27T23:56:03.000Z,27.73
2018-12-27T23:58:32.444Z,29.13
